Time;durP1;ratioP1;P1;durP2;ratioP2;P2;SDS_P1;SDS_P2;PMS_P1;PMS_P2;Temp;Humidity;BMP_temperature;BMP_pressure;BME280_temperature;BME280_humidity;BME280_pressure;Samples;Min_cycle;Max_cycle;Signal;HPM_P1;HPM_P2
2022/03/25 00:01:40;;;;;;;25.53;14.10;;;;;;;;;;5055312;28;20454;-86
2022/03/25 00:04:07;;;;;;;23.40;14.10;;;;;;;;;;5055245;28;20455;-86
2022/03/25 00:06:34;;;;;;;26.00;13.27;;;;;;;;;;5055420;28;20524;-88
2022/03/25 00:09:01;;;;;;;22.07;13.17;;;;;;;;;;5054109;28;20458;-86
2022/03/25 00:11:30;;;;;;;25.83;14.90;;;5.70;93.00;;;;;;5054805;28;20454;-88
2022/03/25 00:13:58;;;;;;;22.70;13.37;;;;;;;;;;5053901;28;20497;-89
2022/03/25 00:16:25;;;;;;;19.00;13.27;;;;;;;;;;5055097;28;20465;-88
2022/03/25 00:18:53;;;;;;;25.00;12.93;;;;;;;;;;5055132;28;20447;-88
2022/03/25 00:21:20;;;;;;;19.03;12.47;;;;;;;;;;5054864;28;20451;-87
2022/03/25 00:23:47;;;;;;;25.40;13.90;;;;;;;;;;5055025;28;20488;-88
2022/03/25 00:26:15;;;;;;;20.07;13.30;;;;;;;;;;5054850;28;20490;-87
2022/03/25 00:28:43;;;;;;;25.53;14.63;;;5.60;94.40;;;;;;5053819;28;20842;-88
2022/03/25 00:31:10;;;;;;;22.47;13.20;;;;;;;;;;5054959;28;20799;-88
2022/03/25 00:33:37;;;;;;;25.53;14.47;;;;;;;;;;5054954;28;20457;-87
2022/03/25 00:36:05;;;;;;;21.83;14.50;;;;;;;;;;5054560;28;20446;-89
2022/03/25 00:38:32;;;;;;;20.60;12.40;;;5.60;94.70;;;;;;5054628;28;20461;-87
2022/03/25 00:40:59;;;;;;;18.37;13.17;;;;;;;;;;5054631;28;20450;-88
2022/03/25 00:43:27;;;;;;;22.20;13.73;;;;;;;;;;5053081;28;20462;-88
2022/03/25 00:45:55;;;;;;;21.07;12.97;;;5.50;95.60;;;;;;5054642;28;20841;-88
2022/03/25 00:48:22;;;;;;;22.80;14.37;;;;;;;;;;5054108;28;20443;-88
2022/03/25 00:50:49;;;;;;;21.43;14.50;;;;;;;;;;5054280;28;20863;-89
2022/03/25 00:53:17;;;;;;;20.50;14.17;;;;;;;;;;5054539;28;20458;-87
2022/03/25 00:55:44;;;;;;;23.07;13.27;;;;;;;;;;5054446;28;20940;-87
2022/03/25 00:58:14;;;;;;;20.00;13.00;;;;;;;;;;5053131;28;20977;-87
2022/03/25 01:00:41;;;;;;;24.80;14.67;;;;;;;;;;5054325;28;20451;-88
2022/03/25 01:03:10;;;;;;;20.87;13.47;;;5.20;97.00;;;;;;5054130;28;20454;-89
2022/03/25 01:05:37;;;;;;;22.80;14.00;;;;;;;;;;5054121;28;20501;-88
2022/03/25 01:08:04;;;;;;;21.63;12.90;;;;;;;;;;5054013;28;20467;-88
2022/03/25 01:10:31;;;;;;;20.37;12.80;;;;;;;;;;5054037;28;20455;-89
2022/03/25 01:12:58;;;;;;;23.00;15.33;;;;;;;;;;5052803;28;20454;-88
2022/03/25 01:15:26;;;;;;;25.27;13.83;;;;;;;;;;5054151;28;20447;-88
2022/03/25 01:17:53;;;;;;;27.60;14.03;;;;;;;;;;5054010;28;20853;-89
2022/03/25 01:20:22;;;;;;;23.80;13.07;;;5.00;99.00;;;;;;5051507;28;20454;-87
2022/03/25 01:22:49;;;;;;;27.33;14.60;;;;;;;;;;5054077;28;20455;-86
2022/03/25 01:25:16;;;;;;;23.03;14.43;;;;;;;;;;5053697;28;20577;-87
2022/03/25 01:27:44;;;;;;;30.30;14.60;;;;;;;;;;5054479;28;20478;-88
2022/03/25 01:30:11;;;;;;;25.67;14.63;;;4.30;99.90;;;;;;5054390;28;20934;-88
2022/03/25 01:32:39;;;;;;;23.63;14.23;;;;;;;;;;5053556;28;20516;-89
2022/03/25 01:35:09;;;;;;;23.00;13.90;;;5.00;99.90;;;;;;5053634;28;20458;-88
2022/03/25 01:37:37;;;;;;;19.50;14.17;;;4.70;99.90;;;;;;5053576;28;20949;-87
2022/03/25 01:40:08;;;;;;;26.53;13.93;;;4.70;99.90;;;;;;5053441;28;20447;-88
2022/03/25 01:42:36;;;;;;;23.03;13.30;;;4.60;99.90;;;;;;5053472;28;20447;-88
2022/03/25 01:45:05;;;;;;;28.67;14.10;;;4.60;99.90;;;;;;5052009;28;20517;-87
2022/03/25 01:47:33;;;;;;;22.63;14.77;;;4.60;99.90;;;;;;5053417;28;20455;-87
2022/03/25 01:50:01;;;;;;;21.77;14.37;;;4.60;99.90;;;;;;5053112;28;20490;-87
2022/03/25 01:52:29;;;;;;;30.40;15.30;;;;;;;;;;5053446;28;20455;-87
2022/03/25 01:55:15;;;;;;;21.27;13.67;;;4.50;99.90;;;;;;5053408;28;20455;-88
2022/03/25 01:57:42;;;;;;;21.13;13.90;;;;;;;;;;5050224;28;20442;-88
2022/03/25 02:00:10;;;;;;;23.13;14.47;;;3.40;99.90;;;;;;5051966;28;20443;-87
2022/03/25 02:02:39;;;;;;;23.73;14.30;;;;;;;;;;5018292;28;20443;-88
2022/03/25 02:05:07;;;;;;;24.80;13.47;;;3.80;99.90;;;;;;5053075;28;20861;-88
2022/03/25 02:07:35;;;;;;;22.60;13.57;;;;;;;;;;5052807;28;20467;-88
2022/03/25 02:10:04;;;;;;;25.10;14.13;;;4.40;99.90;;;;;;5052767;28;20446;-89
2022/03/25 02:12:31;;;;;;;21.80;13.53;;;;;;;;;;5050975;28;20451;-88
2022/03/25 02:14:59;;;;;;;21.73;13.73;;;;;;;;;;5052174;28;20521;-89
2022/03/25 02:17:26;;;;;;;21.57;14.37;;;;;;;;;;5051371;28;20473;-88
2022/03/25 02:19:53;;;;;;;24.03;14.30;;;;;;;;;;5052942;28;20443;-88
2022/03/25 02:22:22;;;;;;;26.43;14.60;;;4.20;99.90;;;;;;5052918;28;20815;-87
2022/03/25 02:24:49;;;;;;;26.43;14.27;;;;;;;;;;5052717;28;20504;-88
2022/03/25 02:27:17;;;;;;;22.67;14.17;;;4.30;99.90;;;;;;5052876;28;20494;-87
2022/03/25 02:29:44;;;;;;;23.03;14.20;;;;;;;;;;5050633;28;20521;-88
2022/03/25 02:32:12;;;;;;;23.50;14.07;;;;;;;;;;5054158;28;20442;-86
2022/03/25 02:34:39;;;;;;;24.20;14.60;;;;;;;;;;5057134;28;20450;-86
2022/03/25 02:37:07;;;;;;;23.30;14.43;;;4.30;99.90;;;;;;5057006;28;20946;-87
2022/03/25 02:39:35;;;;;;;25.07;14.00;;;4.30;99.90;;;;;;5056954;28;20473;-86
2022/03/25 02:42:03;;;;;;;23.83;14.80;;;;;;;;;;5056754;28;20447;-86
2022/03/25 02:44:30;;;;;;;25.00;14.77;;;;;;;;;;5055751;28;20450;-88
2022/03/25 02:46:58;;;;;;;25.90;13.97;;;;;;;;;;5057761;28;20580;-87
2022/03/25 02:49:25;;;;;;;27.47;14.10;;;;;;;;;;5056401;28;20474;-88
2022/03/25 02:51:52;;;;;;;24.60;13.97;;;;;;;;;;5056393;28;20447;-87
2022/03/25 02:54:19;;;;;;;21.20;13.70;;;;;;;;;;5057574;28;20462;-87
2022/03/25 02:56:47;;;;;;;20.03;13.00;;;4.10;99.90;;;;;;5056428;28;20446;-87
2022/03/25 02:59:15;;;;;;;22.17;14.13;;;;;;;;;;5055580;28;20466;-87
2022/03/25 03:01:42;;;;;;;19.30;13.33;;;;;;;;;;5056473;28;20456;-86
2022/03/25 03:04:09;;;;;;;21.60;13.40;;;;;;;;;;5056242;28;20491;-86
2022/03/25 03:06:36;;;;;;;25.20;14.83;;;;;;;;;;5056302;28;20522;-87
2022/03/25 03:09:04;;;;;;;25.77;14.73;;;3.90;99.90;;;;;;5056345;28;20514;-87
2022/03/25 03:11:31;;;;;;;25.60;14.93;;;;;;;;;;5056212;28;20453;-88
2022/03/25 03:13:59;;;;;;;22.77;13.93;;;3.80;99.90;;;;;;5055318;28;20810;-86
2022/03/25 03:16:26;;;;;;;22.57;14.77;;;;;;;;;;5056192;28;20454;-87
2022/03/25 03:18:53;;;;;;;23.00;13.83;;;;;;;;;;5056069;28;20450;-87
2022/03/25 03:21:24;;;;;;;22.40;14.10;;;;;;;;;;5056201;28;20785;-88
2022/03/25 03:23:51;;;;;;;22.60;14.00;;;;;;;;;;5053603;28;20541;-86
2022/03/25 03:26:19;;;;;;;23.20;14.20;;;;;;;;;;5056030;28;20497;-87
2022/03/25 03:28:46;;;;;;;24.50;15.10;;;;;;;;;;5054651;28;20438;-87
2022/03/25 03:31:14;;;;;;;21.17;15.13;;;3.70;99.90;;;;;;5055903;28;20438;-87
2022/03/25 03:33:41;;;;;;;22.83;14.23;;;;;;;;;;5054606;28;20949;-88
2022/03/25 03:36:09;;;;;;;24.50;15.13;;;;;;;;;;5056498;28;20455;-88
2022/03/25 03:38:36;;;;;;;20.53;13.13;;;;;;;;;;5055835;28;20944;-87
2022/03/25 03:41:03;;;;;;;19.90;13.50;;;;;;;;;;5055758;28;20930;-88
2022/03/25 03:43:30;;;;;;;20.80;13.83;;;;;;;;;;5055711;28;21020;-87
2022/03/25 03:45:57;;;;;;;24.20;14.53;;;;;;;;;;5055263;28;20478;-87
2022/03/25 03:48:25;;;;;;;24.30;14.73;;;3.60;99.90;;;;;;5055828;28;20443;-88
2022/03/25 03:50:53;;;;;;;21.43;13.50;;;;;;;;;;5055590;28;20497;-86
2022/03/25 03:53:20;;;;;;;28.90;14.23;;;;;;;;;;5055694;28;20455;-87
2022/03/25 03:55:47;;;;;;;24.77;15.73;;;;;;;;;;5056737;28;20843;-87
2022/03/25 03:58:14;;;;;;;20.80;12.70;;;;;;;;;;5054012;28;20459;-88
2022/03/25 04:00:41;;;;;;;23.80;14.87;;;;;;;;;;5055411;28;20542;-86
2022/03/25 04:03:08;;;;;;;23.97;14.70;;;;;;;;;;5055571;28;20451;-87
2022/03/25 04:05:37;;;;;;;21.30;13.47;;;3.40;99.90;;;;;;5054883;28;20462;-86
2022/03/25 04:08:04;;;;;;;21.60;14.40;;;;;;;;;;5053949;28;20450;-87
2022/03/25 04:10:31;;;;;;;23.00;13.97;;;;;;;;;;5054853;28;20854;-87
2022/03/25 04:12:58;;;;;;;22.40;13.40;;;;;;;;;;5053994;28;20529;-86
2022/03/25 04:15:26;;;;;;;23.43;14.20;;;;;;;;;;5055146;28;20461;-88
2022/03/25 04:17:53;;;;;;;21.40;13.80;;;;;;;;;;5054933;28;20455;-88
2022/03/25 04:20:20;;;;;;;22.17;13.67;;;;;;;;;;5055011;28;20451;-87
2022/03/25 04:22:48;;;;;;;24.97;15.40;;;;;;;;;;5054940;28;20453;-88
2022/03/25 04:25:15;;;;;;;19.83;13.40;;;;;;;;;;5054958;28;20462;-86
2022/03/25 04:27:53;;;;;;;22.70;14.43;;;3.30;99.90;;;;;;5055007;28;20521;-86
2022/03/25 04:30:24;;;;;;;27.73;14.30;;;3.20;99.90;;;;;;5055556;28;21028;-86
2022/03/25 04:32:52;;;;;;;24.10;14.03;;;;;;;;;;5055224;28;20451;-87
2022/03/25 04:35:19;;;;;;;24.30;13.87;;;;;;;;;;5054641;28;20442;-88
2022/03/25 04:37:46;;;;;;;29.60;15.93;;;;;;;;;;5054729;28;20458;-87
2022/03/25 04:40:17;;;;;;;22.03;13.90;;;3.20;99.90;;;;;;5054162;28;20505;-87
2022/03/25 04:42:44;;;;;;;25.30;14.10;;;;;;;;;;5054610;28;20474;-87
2022/03/25 04:45:12;;;;;;;24.57;14.10;;;;;;;;;;5053931;28;20462;-87
2022/03/25 04:47:39;;;;;;;23.87;15.17;;;;;;;;;;5054429;28;20490;-88
2022/03/25 04:50:07;;;;;;;27.43;15.40;;;;;;;;;;5054226;28;20893;-87
2022/03/25 04:52:34;;;;;;;23.07;13.93;;;;;;;;;;5054531;28;20473;-86
2022/03/25 04:55:01;;;;;;;23.87;14.30;;;;;;;;;;5054879;28;20458;-87
2022/03/25 04:57:29;;;;;;;23.40;14.90;;;2.90;99.90;;;;;;5054346;28;20439;-86
2022/03/25 04:59:56;;;;;;;26.40;14.60;;;;;;;;;;5053454;28;20443;-86
2022/03/25 05:02:24;;;;;;;24.40;15.03;;;;;;;;;;5054314;28;20466;-88
2022/03/25 05:04:55;;;;;;;24.57;15.20;;;;;;;;;;5054223;28;20466;-87
2022/03/25 05:07:23;;;;;;;24.60;14.77;;;2.80;99.90;;;;;;5054044;28;20489;-87
2022/03/25 05:09:50;;;;;;;26.90;15.20;;;;;;;;;;5054164;28;20453;-87
2022/03/25 05:12:18;;;;;;;25.63;15.40;;;;;;;;;;5053957;28;20451;-86
2022/03/25 05:14:47;;;;;;;25.33;15.10;;;2.80;99.90;;;;;;5052480;28;20504;-87
2022/03/25 05:17:14;;;;;;;27.90;15.63;;;;;;;;;;5054182;28;20514;-87
2022/03/25 05:19:42;;;;;;;25.40;15.43;;;;;;;;;;5053796;28;20443;-88
2022/03/25 05:22:09;;;;;;;26.80;15.10;;;;;;;;;;5053846;28;21009;-86
2022/03/25 05:24:36;;;;;;;29.10;14.33;;;;;;;;;;5053806;28;20450;-86
2022/03/25 05:27:04;;;;;;;23.77;14.90;;;;;;;;;;5053663;28;20486;-87
2022/03/25 05:29:31;;;;;;;24.20;13.33;;;;;;;;;;5052719;28;20450;-88
2022/03/25 05:31:59;;;;;;;26.30;16.23;;;2.90;99.90;;;;;;5053859;28;20458;-87
2022/03/25 05:34:26;;;;;;;26.30;15.57;;;;;;;;;;5053656;28;20443;-86
2022/03/25 05:36:53;;;;;;;32.23;16.57;;;;;;;;;;5053512;28;20458;-87
2022/03/25 05:39:21;;;;;;;27.37;16.00;;;;;;;;;;5053648;28;20454;-87
2022/03/25 05:41:48;;;;;;;26.90;14.10;;;;;;;;;;5053460;28;20447;-86
2022/03/25 05:44:15;;;;;;;21.57;15.17;;;;;;;;;;5052612;28;20808;-86
2022/03/25 05:46:43;;;;;;;26.30;16.10;;;;;;;;;;5053295;28;20501;-87
2022/03/25 05:49:11;;;;;;;23.80;16.30;;;3.10;99.90;;;;;;5053442;28;20482;-86
2022/03/25 05:51:38;;;;;;;35.83;16.57;;;;;;;;;;5053041;28;20581;-86
2022/03/25 05:54:05;;;;;;;24.10;16.07;;;;;;;;;;5054354;28;20461;-86
2022/03/25 05:56:32;;;;;;;29.53;16.60;;;;;;;;;;5053288;28;20438;-85
2022/03/25 05:58:59;;;;;;;32.43;15.90;;;;;;;;;;5052116;28;20454;-89
2022/03/25 06:01:29;;;;;;;27.50;16.20;;;;;;;;;;5052965;28;20446;-87
2022/03/25 06:03:56;;;;;;;22.13;16.10;;;;;;;;;;5052958;28;20541;-89
2022/03/25 06:06:24;;;;;;;22.83;15.23;;;4.40;99.90;;;;;;5053325;28;20462;-88
2022/03/25 06:08:51;;;;;;;28.10;15.57;;;;;;;;;;5053037;28;20447;-87
2022/03/25 06:11:18;;;;;;;24.90;16.30;;;;;;;;;;5053026;28;20829;-87
2022/03/25 06:13:45;;;;;;;23.07;15.80;;;;;;;;;;5051734;28;20450;-87
2022/03/25 06:16:12;;;;;;;22.97;14.37;;;;;;;;;;5052793;28;20454;-88
2022/03/25 06:18:39;;;;;;;27.00;16.37;;;;;;;;;;5052953;28;20450;-87
2022/03/25 06:21:06;;;;;;;28.87;17.37;;;;;;;;;;5052932;28;20458;-88
2022/03/25 06:23:35;;;;;;;25.10;15.73;;;6.00;99.90;;;;;;5052942;28;20454;-88
2022/03/25 06:26:05;;;;;;;23.83;15.97;;;;;;;;;;5052752;28;20497;-88
2022/03/25 06:28:32;;;;;;;25.43;17.13;;;;;;;;;;5051430;28;20497;-86
2022/03/25 06:30:59;;;;;;;25.27;17.77;;;;;;;;;;5052782;28;20446;-88
2022/03/25 06:33:26;;;;;;;23.47;16.27;;;;;;;;;;5052668;28;20454;-87
2022/03/25 06:35:53;;;;;;;26.93;17.23;;;;;;;;;;5052731;28;20980;-88
2022/03/25 06:38:20;;;;;;;26.00;18.37;;;;;;;;;;5053101;28;20450;-87
2022/03/25 06:40:49;;;;;;;29.67;18.33;;;7.80;99.90;;;;;;5052964;28;20453;-88
2022/03/25 06:43:16;;;;;;;27.40;18.97;;;;;;;;;;5051472;28;20455;-88
2022/03/25 06:45:43;;;;;;;28.30;18.50;;;;;;;;;;5052758;28;20450;-90
2022/03/25 06:48:10;;;;;;;26.27;18.80;;;;;;;;;;5052606;28;20490;-88
2022/03/25 06:50:37;;;;;;;25.43;18.63;;;8.70;99.90;;;;;;5052416;28;20474;-89
2022/03/25 06:53:05;;;;;;;34.13;20.10;;;9.20;99.90;;;;;;5052622;28;20446;-88
2022/03/25 06:55:33;;;;;;;30.20;19.90;;;9.40;99.90;;;;;;5053684;28;20479;-88
2022/03/25 06:58:02;;;;;;;32.13;21.73;;;9.80;92.80;;;;;;5049709;28;20447;-88
2022/03/25 07:00:30;;;;;;;28.63;20.80;;;;;;;;;;5052241;28;20442;-88
2022/03/25 07:02:57;;;;;;;30.30;20.50;;;;;;;;;;5052869;28;20463;-89
2022/03/25 07:05:24;;;;;;;26.27;20.00;;;;;;;;;;5050893;28;20477;-89
2022/03/25 07:07:52;;;;;;;27.67;19.60;;;;;;;;;;5053020;28;20504;-88
2022/03/25 07:10:23;;;;;;;35.10;22.43;;;;;;;;;;5052962;28;20451;-89
2022/03/25 07:12:52;;;;;;;35.23;20.67;;;11.70;85.80;;;;;;5052532;28;20509;-87
2022/03/25 07:15:21;;;;;;;32.80;22.03;;;12.00;84.10;;;;;;5052685;28;20453;-89
2022/03/25 07:17:48;;;;;;;30.90;22.63;;;;;;;;;;5052886;28;20447;-89
2022/03/25 07:20:16;;;;;;;27.73;22.30;;;12.40;82.20;;;;;;5056076;28;20454;-90
2022/03/25 07:22:44;;;;;;;27.70;22.40;;;;;;;;;;5056181;28;20450;-88
2022/03/25 07:25:11;;;;;;;30.43;22.30;;;12.80;78.80;;;;;;5056160;28;20454;-87
2022/03/25 07:27:38;;;;;;;30.80;23.33;;;;;;;;;;5055734;28;20493;-88
2022/03/25 07:30:07;;;;;;;28.30;21.90;;;13.00;95.30;;;;;;5054846;28;20450;-89
2022/03/25 07:32:35;;;;;;;27.77;21.57;;;13.10;74.00;;;;;;5055896;28;20957;-90
2022/03/25 07:35:02;;;;;;;27.83;23.07;;;;;;;;;;5057106;28;20454;-88
2022/03/25 07:37:29;;;;;;;29.97;22.13;;;;;;;;;;5058858;28;20462;-89
2022/03/25 07:39:56;;;;;;;30.77;23.37;;;;;;;;;;5059869;28;20454;-88
2022/03/25 07:42:24;;;;;;;29.50;23.60;;;;;;;;;;5056609;28;20439;-89
2022/03/25 07:44:51;;;;;;;28.63;23.10;;;;;;;;;;5056531;28;20537;-89
2022/03/25 07:47:18;;;;;;;31.50;23.07;;;;;;;;;;5057182;28;21016;-89
2022/03/25 07:49:46;;;;;;;27.43;21.90;;;14.80;68.10;;;;;;5056672;28;20899;-89
2022/03/25 07:52:14;;;;;;;26.50;22.07;;;;;;;;;;5052504;28;20480;-88
2022/03/25 07:54:41;;;;;;;34.63;23.90;;;;;;;;;;5056781;28;20576;-89
2022/03/25 07:57:08;;;;;;;27.83;22.10;;;;;;;;;;5057503;28;20442;-89
2022/03/25 07:59:36;;;;;;;29.67;21.33;;;;;;;;;;5059218;28;20869;-90
2022/03/25 08:02:03;;;;;;;25.57;21.70;;;;;;;;;;5058745;28;20528;-89
2022/03/25 08:04:30;;;;;;;29.70;23.60;;;;;;;;;;5058844;28;20467;-90
2022/03/25 08:06:58;;;;;;;28.67;22.13;;;15.30;61.60;;;;;;5060134;28;20457;-89
2022/03/25 08:09:25;;;;;;;29.40;23.50;;;;;;;;;;5057241;28;20449;-89
2022/03/25 08:11:53;;;;;;;29.63;24.00;;;;;;;;;;5058865;28;20457;-89
2022/03/25 08:14:21;;;;;;;28.40;22.60;;;;;;;;;;5054792;28;20458;-89
2022/03/25 08:16:48;;;;;;;28.43;22.90;;;;;;;;;;5055702;28;20465;-90
2022/03/25 08:19:16;;;;;;;29.30;23.40;;;;;;;;;;5057350;28;20458;-89
2022/03/25 08:21:43;;;;;;;29.10;24.47;;;;;;;;;;5058362;28;20451;-89
2022/03/25 08:29:41;;;;;;;29.93;22.67;;;;;;;;;;5055108;28;20446;-88
2022/03/25 08:32:08;;;;;;;27.53;23.40;;;;;;;;;;5056663;28;20500;-90
2022/03/25 08:34:35;;;;;;;36.57;24.10;;;;;;;;;;5056843;28;20451;-89
2022/03/25 08:37:02;;;;;;;31.87;25.53;;;;;;;;;;5056958;28;20466;-88
2022/03/25 08:39:31;;;;;;;31.63;23.70;;;;;;;;;;5055396;28;20946;-89
2022/03/25 08:41:58;;;;;;;30.13;24.03;;;;;;;;;;5055530;28;20455;-88
2022/03/25 08:44:25;;;;;;;29.63;22.83;;;;;;;;;;5055044;28;20447;-89
2022/03/25 08:46:52;;;;;;;29.43;22.70;;;;;;;;;;5054820;28;20438;-89
2022/03/25 08:49:19;;;;;;;48.23;25.90;;;;;;;;;;5055460;28;20501;-90
2022/03/25 08:51:47;;;;;;;30.37;24.97;;;;;;;;;;5054635;28;20520;-89
2022/03/25 08:54:14;;;;;;;31.43;24.03;;;;;;;;;;5054683;28;20446;-89
2022/03/25 08:56:42;;;;;;;29.93;24.23;;;19.20;70.00;;;;;;5055017;28;20470;-90
2022/03/25 08:59:09;;;;;;;32.43;22.67;;;;;;;;;;5051789;28;20463;-89
2022/03/25 09:01:36;;;;;;;32.03;23.97;;;;;;;;;;5054218;28;20449;-89
2022/03/25 09:04:04;;;;;;;29.60;22.00;;;;;;;;;;5054671;28;20463;-88
2022/03/25 09:06:31;;;;;;;30.63;22.70;;;;;;;;;;5055434;28;20451;-89
2022/03/25 09:08:58;;;;;;;29.67;24.33;;;;;;;;;;5053747;28;20548;-89
2022/03/25 09:11:25;;;;;;;31.23;24.00;;;;;;;;;;5054038;28;20446;-89
2022/03/25 09:13:54;;;;;;;29.20;22.77;;;19.50;59.40;;;;;;5053083;28;20454;-89
2022/03/25 09:16:21;;;;;;;31.47;24.07;;;;;;;;;;5053696;28;20886;-90
2022/03/25 09:18:49;;;;;;;29.37;23.30;;;;;;;;;;5053998;28;20458;-91
2022/03/25 09:21:16;;;;;;;29.80;24.00;;;;;;;;;;5054110;28;20455;-90
2022/03/25 09:23:43;;;;;;;33.30;23.87;;;;;;;;;;5054030;28;20810;-90
2022/03/25 09:26:10;;;;;;;29.80;23.40;;;;;;;;;;5053898;28;20814;-90
2022/03/25 09:28:37;;;;;;;29.70;24.40;;;;;;;;;;5052852;28;20865;-90
2022/03/25 09:31:06;;;;;;;28.13;23.87;;;;;;;;;;5053691;28;20464;-90
2022/03/25 09:33:33;;;;;;;29.70;24.70;;;;;;;;;;5053785;28;20465;-90
2022/03/25 09:36:00;;;;;;;31.80;25.80;;;;;;;;;;5053913;28;20447;-90
2022/03/25 09:38:28;;;;;;;30.20;23.90;;;;;;;;;;5054476;28;20451;-89
2022/03/25 09:40:55;;;;;;;31.40;24.60;;;;;;;;;;5053588;28;20457;-90
2022/03/25 09:43:23;;;;;;;30.60;24.17;;;;;;;;;;5057806;28;20532;-90
2022/03/25 09:45:50;;;;;;;28.83;24.60;;;;;;;;;;5053873;28;20438;-88
2022/03/25 09:48:18;;;;;;;28.20;24.23;;;;;;;;;;5053445;28;20505;-90
2022/03/25 09:50:46;;;;;;;29.23;25.27;;;;;;;;;;5054143;28;20528;-89
2022/03/25 09:53:13;;;;;;;29.10;23.50;;;;;;;;;;5053350;28;20451;-88
2022/03/25 09:55:42;;;;;;;31.70;25.27;;;20.70;49.00;;;;;;5053451;28;20809;-88
2022/03/25 09:58:10;;;;;;;25.00;22.40;;;;;;;;;;5052429;28;20930;-89
2022/03/25 10:00:37;;;;;;;31.73;24.23;;;;;;;;;;5053543;28;20845;-90
2022/03/25 10:03:04;;;;;;;28.73;23.33;;;;;;;;;;5053780;28;20965;-90
2022/03/25 10:05:33;;;;;;;33.17;24.00;;;20.90;48.20;;;;;;5053581;28;20455;-89
2022/03/25 10:08:00;;;;;;;27.50;23.10;;;;;;;;;;5053696;28;20478;-90
2022/03/25 10:10:28;;;;;;;25.57;22.73;;;21.90;45.60;;;;;;5054017;28;20447;-90
2022/03/25 10:13:00;;;;;;;25.60;22.67;;;22.40;44.80;;;;;;5052513;28;20500;-91
2022/03/25 10:15:28;;;;;;;30.43;23.10;;;21.60;45.20;;;;;;5053528;28;20930;-91
2022/03/25 10:17:57;;;;;;;27.97;22.63;;;20.40;46.10;;;;;;5050597;28;20485;-91
2022/03/25 10:20:26;;;;;;;26.90;22.73;;;19.90;45.70;;;;;;5041970;28;20441;-89
2022/03/25 10:23:07;;;;;;;27.13;24.23;;;20.20;41.30;;;;;;5073446;28;20897;-89
2022/03/25 10:25:47;;;;;;;25.73;22.10;;;21.20;49.10;;;;;;5073203;28;20491;-90
2022/03/25 10:28:28;;;;;;;27.60;22.07;;;21.80;42.20;;;;;;5080842;28;20461;-90
2022/03/25 10:30:57;;;;;;;26.07;23.27;;;21.80;45.70;;;;;;5085648;28;20483;-90
2022/03/25 10:33:27;;;;;;;27.07;23.40;;;22.10;45.50;;;;;;5073281;28;20499;-89
2022/03/25 10:36:08;;;;;;;28.00;24.67;;;21.70;43.60;;;;;;5073392;28;20444;-90
2022/03/25 10:38:47;;;;;;;27.37;23.63;;;21.20;44.40;;;;;;5073177;28;20487;-91
2022/03/25 10:41:16;;;;;;;27.60;24.60;;;21.70;45.20;;;;;;5072808;28;20456;-90
2022/03/25 10:43:53;;;;;;;26.83;21.77;;;22.20;40.50;;;;;;5071923;28;20799;-90
2022/03/25 10:46:35;;;;;;;27.93;23.70;;;21.50;40.00;;;;;;5072717;28;21018;-92
2022/03/25 10:49:05;;;;;;;27.20;23.10;;;21.00;43.70;;;;;;5072799;28;20508;-89
2022/03/25 10:51:33;;;;;;;27.53;21.57;;;21.70;41.10;;;;;;5072774;28;20453;-89
2022/03/25 10:54:03;;;;;;;25.87;21.37;;;22.30;44.80;;;;;;5073231;28;20456;-89
2022/03/25 10:56:43;;;;;;;28.90;24.33;;;22.50;43.30;;;;;;5077084;28;20925;-90
2022/03/25 10:59:21;;;;;;;29.37;24.00;;;22.20;43.60;;;;;;5073381;28;20441;-90
2022/03/25 11:01:49;;;;;;;29.83;22.90;;;;;;;;;;5073945;28;20440;-89
2022/03/25 11:04:16;;;;;;;26.37;21.83;;;;;;;;;;5076680;28;20457;-90
2022/03/25 11:06:44;;;;;;;31.63;21.17;;;;;;;;;;5076864;28;20450;-90
2022/03/25 11:09:13;;;;;;;28.57;23.50;;;22.50;42.10;;;;;;5076910;28;21139;-90
2022/03/25 11:11:41;;;;;;;26.20;23.03;;;22.70;44.40;;;;;;5076683;28;20450;-88
2022/03/25 11:14:09;;;;;;;29.70;23.83;;;;;;;;;;5075788;28;20449;-90
2022/03/25 11:16:39;;;;;;;24.50;21.90;;;23.10;41.60;;;;;;5076656;28;20445;-91
2022/03/25 11:19:08;;;;;;;26.60;22.67;;;22.50;42.30;;;;;;5076717;28;20454;-90
2022/03/25 11:21:40;;;;;;;23.73;21.30;;;22.40;40.20;;;;;;5074108;28;20776;-92
2022/03/25 11:24:13;;;;;;;26.87;21.63;;;22.60;39.40;;;;;;5076731;28;20807;-90
2022/03/25 11:26:45;;;;;;;27.60;21.57;;;23.20;38.70;;;;;;5073034;28;20457;-92
2022/03/25 11:29:15;;;;;;;24.57;21.20;;;22.10;36.60;;;;;;5075807;28;20999;-92
2022/03/25 11:32:11;;;;;;;24.00;21.50;;;21.20;35.80;;;;;;5077656;28;20541;-91
2022/03/25 11:34:43;;;;;;;30.53;22.53;;;22.50;36.70;;;;;;5076470;28;20809;-91
2022/03/25 11:37:31;;;;;;;23.67;21.13;;;22.60;39.80;;;;;;5073660;28;20795;-90
2022/03/25 11:40:28;;;;;;;27.60;22.00;;;22.50;38.60;;;;;;5073089;28;20532;-90
2022/03/25 11:42:59;;;;;;;30.70;22.50;;;21.70;40.50;;;;;;5074816;28;20458;-90
2022/03/25 11:45:33;;;;;;;27.43;21.77;;;22.20;36.90;;;;;;5076167;28;20937;-92
2022/03/25 11:48:37;;;;;;;29.53;22.67;;;22.30;36.60;;;;;;5075722;28;20442;-93
2022/03/25 11:51:29;;;;;;;28.20;21.60;;;21.60;38.30;;;;;;5077021;28;20461;-93
2022/03/25 11:53:56;;;;;;;25.57;22.10;;;;;;;;;;5076974;28;20461;-91
2022/03/25 11:56:24;;;;;;;26.30;22.77;;;;;;;;;;5077453;28;20470;-92
2022/03/25 11:59:11;;;;;;;27.00;22.40;;;22.40;40.30;;;;;;5075983;28;20589;-95
2022/03/25 12:01:38;;;;;;;27.27;23.33;;;;;;;;;;5076712;28;20948;-94
2022/03/25 12:04:06;;;;;;;24.73;20.90;;;;;;;;;;5075569;28;20508;-92
2022/03/25 12:07:01;;;;;;;31.10;20.97;;;22.90;38.70;;;;;;5075955;28;20437;-93
2022/03/25 12:09:35;;;;;;;27.50;21.80;;;23.20;39.00;;;;;;5077728;28;20485;-93
2022/03/25 12:12:02;;;;;;;25.07;21.37;;;;;;;;;;5076745;28;20444;-96
2022/03/25 12:14:32;;;;;;;26.30;20.77;;;22.50;40.50;;;;;;5075545;28;20780;-93
2022/03/25 12:17:04;;;;;;;25.10;20.87;;;23.00;40.70;;;;;;5077428;28;20445;-95
2022/03/25 12:20:00;;;;;;;27.03;22.03;;;22.70;38.00;;;;;;5075225;28;20461;-94
2022/03/25 12:22:33;;;;;;;23.70;19.83;;;22.80;38.40;;;;;;5076432;28;20460;-93
2022/03/25 12:25:09;;;;;;;26.20;21.50;;;23.40;38.80;;;;;;5072930;28;20604;-93
2022/03/25 12:27:37;;;;;;;26.10;20.70;;;;;;;;;;5076726;28;20864;-93
2022/03/25 12:30:07;;;;;;;26.83;21.70;;;23.40;37.50;;;;;;5072590;28;20604;-91
2022/03/25 12:32:36;;;;;;;27.77;20.60;;;23.30;35.40;;;;;;5075973;28;20463;-92
2022/03/25 12:35:05;;;;;;;22.60;18.37;;;23.00;37.20;;;;;;5076328;28;20512;-93
2022/03/25 12:37:38;;;;;;;28.47;21.70;;;23.20;35.00;;;;;;5076690;28;20524;-92
2022/03/25 12:40:13;;;;;;;25.93;19.37;;;22.70;37.30;;;;;;5076886;28;20469;-94
2022/03/25 12:42:40;;;;;;;22.90;20.47;;;;;;;;;;5076039;28;20460;-95
2022/03/25 12:45:09;;;;;;;25.40;21.90;;;22.70;38.30;;;;;;5075245;28;20445;-94
2022/03/25 12:47:38;;;;;;;27.73;21.20;;;22.10;36.70;;;;;;5077377;28;20460;-94
2022/03/25 12:50:08;;;;;;;24.03;21.53;;;22.40;36.00;;;;;;5075607;28;20509;-94
2022/03/25 12:52:35;;;;;;;26.47;19.90;;;;;;;;;;5072555;28;20477;-93
2022/03/25 12:55:10;;;;;;;27.57;21.60;;;22.80;37.70;;;;;;5076612;28;20461;-96
2022/03/25 12:57:38;;;;;;;28.77;22.03;;;22.40;35.80;;;;;;5075745;28;20438;-93
2022/03/25 13:00:09;;;;;;;25.43;20.10;;;23.20;38.00;;;;;;5072579;28;20492;-94
2022/03/25 13:02:38;;;;;;;24.03;20.13;;;22.60;34.30;;;;;;5076297;28;20818;-93
2022/03/25 13:05:07;;;;;;;25.03;20.93;;;22.70;34.80;;;;;;5085770;28;20448;-92
2022/03/25 13:07:35;;;;;;;23.53;19.73;;;;;;;;;;5075885;28;20453;-93
2022/03/25 13:10:02;;;;;;;25.20;19.90;;;;;;;;;;5075630;28;20496;-91
2022/03/25 13:12:30;;;;;;;23.63;20.73;;;;;;;;;;5075449;28;20461;-92
2022/03/25 13:14:57;;;;;;;24.70;19.70;;;;;;;;;;5075423;28;20444;-94
2022/03/25 13:17:39;;;;;;;24.10;20.40;;;22.50;37.50;;;;;;5075321;28;20431;-93
2022/03/25 13:20:12;;;;;;;24.53;20.50;;;23.20;38.90;;;;;;5075334;28;20478;-92
2022/03/25 13:22:55;;;;;;;25.50;20.30;;;22.40;37.40;;;;;;5077374;28;20537;-92
2022/03/25 13:25:25;;;;;;;25.47;21.17;;;;;;;;;;5082424;28;20461;-93
2022/03/25 13:27:54;;;;;;;23.60;19.67;;;22.60;36.70;;;;;;5089270;28;20433;-91
2022/03/25 13:30:22;;;;;;;24.33;19.70;;;;;;;;;;5076330;28;20481;-93
2022/03/25 13:32:57;;;;;;;23.37;20.30;;;22.40;35.60;;;;;;5075405;28;20454;-94
2022/03/25 13:35:32;;;;;;;23.97;21.10;;;22.30;35.60;;;;;;5072590;28;20465;-93
2022/03/25 13:37:59;;;;;;;23.93;20.57;;;;;;;;;;5073091;28;20453;-92
2022/03/25 13:40:28;;;;;;;20.30;16.60;;;;;;;;;;5076071;28;20438;-93
2022/03/25 13:42:58;;;;;;;30.03;19.50;;;21.10;34.80;;;;;;5071934;28;20442;-92
2022/03/25 13:45:25;;;;;;;26.70;21.13;;;;;;;;;;5073325;28;20816;-92
2022/03/25 13:48:02;;;;;;;30.80;20.93;;;21.30;35.20;;;;;;5075057;28;20448;-93
2022/03/25 13:50:29;;;;;;;26.97;20.23;;;;;;;;;;5075013;28;20527;-93